sensor_id;sensor_type;location;lat;lon;timestamp;temperature;humidity
6879;DHT22;3478;51.462;7.338;2022-08-21T00:04:09;18.50;99.90
6879;DHT22;3478;51.462;7.338;2022-08-21T00:09:11;18.30;99.90
6879;DHT22;3478;51.462;7.338;2022-08-21T00:14:14;18.20;99.90
6879;DHT22;3478;51.462;7.338;2022-08-21T00:19:17;18.20;99.90
6879;DHT22;3478;51.462;7.338;2022-08-21T00:24:21;18.30;99.90
6879;DHT22;3478;51.462;7.338;2022-08-21T00:29:23;18.20;99.90
6879;DHT22;3478;51.462;7.338;2022-08-21T00:34:26;18.10;99.90
6879;DHT22;3478;51.462;7.338;2022-08-21T00:39:28;18.00;99.90
6879;DHT22;3478;51.462;7.338;2022-08-21T00:44:30;17.90;99.90
6879;DHT22;3478;51.462;7.338;2022-08-21T00:49:33;17.90;99.90
6879;DHT22;3478;51.462;7.338;2022-08-21T00:54:36;17.90;99.90
6879;DHT22;3478;51.462;7.338;2022-08-21T00:59:40;17.80;99.90
6879;DHT22;3478;51.462;7.338;2022-08-21T01:04:45;17.80;99.90
6879;DHT22;3478;51.462;7.338;2022-08-21T01:09:48;17.80;99.90
6879;DHT22;3478;51.462;7.338;2022-08-21T01:14:50;17.90;99.90
6879;DHT22;3478;51.462;7.338;2022-08-21T01:19:56;18.00;99.90
6879;DHT22;3478;51.462;7.338;2022-08-21T01:25:00;18.10;99.90
6879;DHT22;3478;51.462;7.338;2022-08-21T01:30:09;18.10;99.90
6879;DHT22;3478;51.462;7.338;2022-08-21T01:35:12;18.20;99.90
6879;DHT22;3478;51.462;7.338;2022-08-21T01:40:16;18.10;99.90
6879;DHT22;3478;51.462;7.338;2022-08-21T01:45:18;18.10;99.90
6879;DHT22;3478;51.462;7.338;2022-08-21T01:50:20;17.90;99.90
6879;DHT22;3478;51.462;7.338;2022-08-21T01:55:24;17.90;99.90
6879;DHT22;3478;51.462;7.338;2022-08-21T02:00:26;17.80;99.90
6879;DHT22;3478;51.462;7.338;2022-08-21T02:05:28;17.70;99.90
6879;DHT22;3478;51.462;7.338;2022-08-21T02:10:31;17.60;99.90
6879;DHT22;3478;51.462;7.338;2022-08-21T02:15:33;17.60;99.90
6879;DHT22;3478;51.462;7.338;2022-08-21T02:20:42;17.50;99.90
6879;DHT22;3478;51.462;7.338;2022-08-21T02:25:45;17.50;99.90
6879;DHT22;3478;51.462;7.338;2022-08-21T02:30:48;17.40;99.90
6879;DHT22;3478;51.462;7.338;2022-08-21T02:35:51;17.40;99.90
6879;DHT22;3478;51.462;7.338;2022-08-21T02:40:56;17.30;99.90
6879;DHT22;3478;51.462;7.338;2022-08-21T02:45:58;17.20;99.90
6879;DHT22;3478;51.462;7.338;2022-08-21T02:51:02;17.20;99.90
6879;DHT22;3478;51.462;7.338;2022-08-21T02:56:10;17.20;99.90
6879;DHT22;3478;51.462;7.338;2022-08-21T03:01:12;17.20;99.90
6879;DHT22;3478;51.462;7.338;2022-08-21T03:06:15;17.10;99.90
6879;DHT22;3478;51.462;7.338;2022-08-21T03:11:18;17.10;99.90
6879;DHT22;3478;51.462;7.338;2022-08-21T03:16:21;17.00;99.90
6879;DHT22;3478;51.462;7.338;2022-08-21T03:21:23;17.00;99.90
6879;DHT22;3478;51.462;7.338;2022-08-21T03:26:26;17.00;99.90
6879;DHT22;3478;51.462;7.338;2022-08-21T03:31:28;16.90;99.90
6879;DHT22;3478;51.462;7.338;2022-08-21T03:36:32;16.80;99.90
6879;DHT22;3478;51.462;7.338;2022-08-21T03:41:35;16.70;99.90
6879;DHT22;3478;51.462;7.338;2022-08-21T03:46:37;16.60;99.90
6879;DHT22;3478;51.462;7.338;2022-08-21T03:51:39;16.50;99.90
6879;DHT22;3478;51.462;7.338;2022-08-21T03:56:42;16.60;99.90
6879;DHT22;3478;51.462;7.338;2022-08-21T04:01:52;16.50;99.90
6879;DHT22;3478;51.462;7.338;2022-08-21T04:06:54;16.50;99.90
6879;DHT22;3478;51.462;7.338;2022-08-21T04:11:58;16.40;99.90
6879;DHT22;3478;51.462;7.338;2022-08-21T04:17:00;16.40;99.90
6879;DHT22;3478;51.462;7.338;2022-08-21T04:22:02;16.30;99.90
6879;DHT22;3478;51.462;7.338;2022-08-21T04:27:05;16.40;99.90
6879;DHT22;3478;51.462;7.338;2022-08-21T04:32:07;16.30;99.90
6879;DHT22;3478;51.462;7.338;2022-08-21T04:37:09;16.30;99.90
6879;DHT22;3478;51.462;7.338;2022-08-21T04:42:12;16.30;99.90
6879;DHT22;3478;51.462;7.338;2022-08-21T04:47:15;16.30;99.90
6879;DHT22;3478;51.462;7.338;2022-08-21T04:52:20;16.40;99.90
6879;DHT22;3478;51.462;7.338;2022-08-21T04:57:24;16.40;99.90
6879;DHT22;3478;51.462;7.338;2022-08-21T05:02:27;16.50;99.90
6879;DHT22;3478;51.462;7.338;2022-08-21T05:07:29;16.60;99.90
6879;DHT22;3478;51.462;7.338;2022-08-21T05:12:34;16.60;99.90
6879;DHT22;3478;51.462;7.338;2022-08-21T05:17:36;16.60;99.90
6879;DHT22;3478;51.462;7.338;2022-08-21T05:22:38;16.80;99.90
6879;DHT22;3478;51.462;7.338;2022-08-21T05:27:41;16.90;99.90
6879;DHT22;3478;51.462;7.338;2022-08-21T05:32:43;16.90;99.90
6879;DHT22;3478;51.462;7.338;2022-08-21T05:37:45;16.90;99.90
6879;DHT22;3478;51.462;7.338;2022-08-21T05:42:49;16.90;99.90
6879;DHT22;3478;51.462;7.338;2022-08-21T05:47:51;17.00;99.90
6879;DHT22;3478;51.462;7.338;2022-08-21T05:52:52;17.20;99.90
6879;DHT22;3478;51.462;7.338;2022-08-21T05:57:56;17.40;99.90
6879;DHT22;3478;51.462;7.338;2022-08-21T06:02:58;17.50;99.90
6879;DHT22;3478;51.462;7.338;2022-08-21T06:08:00;17.50;99.90
6879;DHT22;3478;51.462;7.338;2022-08-21T06:13:03;17.50;99.90
6879;DHT22;3478;51.462;7.338;2022-08-21T06:18:06;17.60;99.90
6879;DHT22;3478;51.462;7.338;2022-08-21T06:23:08;17.80;99.90
6879;DHT22;3478;51.462;7.338;2022-08-21T06:28:11;18.00;99.90
6879;DHT22;3478;51.462;7.338;2022-08-21T06:33:14;18.20;99.90
6879;DHT22;3478;51.462;7.338;2022-08-21T06:38:16;18.30;99.90
6879;DHT22;3478;51.462;7.338;2022-08-21T06:43:19;18.50;99.90
6879;DHT22;3478;51.462;7.338;2022-08-21T06:48:22;18.50;99.90
6879;DHT22;3478;51.462;7.338;2022-08-21T06:53:23;18.70;99.90
6879;DHT22;3478;51.462;7.338;2022-08-21T06:58:27;18.80;99.90
6879;DHT22;3478;51.462;7.338;2022-08-21T07:03:30;18.80;99.90
6879;DHT22;3478;51.462;7.338;2022-08-21T07:08:33;18.90;99.90
6879;DHT22;3478;51.462;7.338;2022-08-21T07:13:36;19.10;99.90
6879;DHT22;3478;51.462;7.338;2022-08-21T07:18:39;19.20;99.90
6879;DHT22;3478;51.462;7.338;2022-08-21T07:23:42;19.40;99.90
6879;DHT22;3478;51.462;7.338;2022-08-21T07:28:47;19.70;99.90
6879;DHT22;3478;51.462;7.338;2022-08-21T07:33:49;19.80;99.90
6879;DHT22;3478;51.462;7.338;2022-08-21T07:38:51;20.00;99.90
6879;DHT22;3478;51.462;7.338;2022-08-21T07:43:55;19.90;99.90
6879;DHT22;3478;51.462;7.338;2022-08-21T07:48:57;20.10;99.90
6879;DHT22;3478;51.462;7.338;2022-08-21T07:53:59;20.20;99.90
6879;DHT22;3478;51.462;7.338;2022-08-21T07:59:03;20.40;99.90
6879;DHT22;3478;51.462;7.338;2022-08-21T08:04:04;20.40;99.90
6879;DHT22;3478;51.462;7.338;2022-08-21T08:09:06;20.60;99.90
6879;DHT22;3478;51.462;7.338;2022-08-21T08:14:10;20.60;99.90
6879;DHT22;3478;51.462;7.338;2022-08-21T08:19:12;20.60;99.90
6879;DHT22;3478;51.462;7.338;2022-08-21T08:24:14;20.60;99.90
6879;DHT22;3478;51.462;7.338;2022-08-21T08:29:17;20.50;99.90
6879;DHT22;3478;51.462;7.338;2022-08-21T08:34:19;20.50;99.90
6879;DHT22;3478;51.462;7.338;2022-08-21T08:39:22;20.60;99.90
6879;DHT22;3478;51.462;7.338;2022-08-21T08:44:25;20.60;99.90
6879;DHT22;3478;51.462;7.338;2022-08-21T08:49:31;20.80;99.90
6879;DHT22;3478;51.462;7.338;2022-08-21T08:54:40;20.80;99.90
6879;DHT22;3478;51.462;7.338;2022-08-21T08:59:46;20.90;99.90
6879;DHT22;3478;51.462;7.338;2022-08-21T09:04:50;21.00;99.90
6879;DHT22;3478;51.462;7.338;2022-08-21T09:10:04;21.30;99.90
6879;DHT22;3478;51.462;7.338;2022-08-21T09:15:13;21.40;99.90
6879;DHT22;3478;51.462;7.338;2022-08-21T09:20:22;21.60;99.90
6879;DHT22;3478;51.462;7.338;2022-08-21T09:25:27;21.90;99.90
6879;DHT22;3478;51.462;7.338;2022-08-21T09:30:32;22.10;99.90
6879;DHT22;3478;51.462;7.338;2022-08-21T09:35:34;22.40;99.90
6879;DHT22;3478;51.462;7.338;2022-08-21T09:40:39;22.50;99.90
6879;DHT22;3478;51.462;7.338;2022-08-21T09:45:44;22.60;99.90
6879;DHT22;3478;51.462;7.338;2022-08-21T09:50:47;22.80;99.90
6879;DHT22;3478;51.462;7.338;2022-08-21T09:55:54;22.90;99.90
6879;DHT22;3478;51.462;7.338;2022-08-21T10:01:17;22.90;99.90
6879;DHT22;3478;51.462;7.338;2022-08-21T10:06:25;23.00;99.90
6879;DHT22;3478;51.462;7.338;2022-08-21T10:11:27;23.20;99.90
6879;DHT22;3478;51.462;7.338;2022-08-21T10:16:40;23.70;99.90
6879;DHT22;3478;51.462;7.338;2022-08-21T10:21:59;23.80;99.90
6879;DHT22;3478;51.462;7.338;2022-08-21T10:27:14;24.00;99.90
6879;DHT22;3478;51.462;7.338;2022-08-21T10:32:47;24.30;99.90
6879;DHT22;3478;51.462;7.338;2022-08-21T10:38:05;24.40;99.90
6879;DHT22;3478;51.462;7.338;2022-08-21T10:43:23;24.80;99.90
6879;DHT22;3478;51.462;7.338;2022-08-21T10:48:34;25.20;99.90
6879;DHT22;3478;51.462;7.338;2022-08-21T10:53:47;25.30;99.90
6879;DHT22;3478;51.462;7.338;2022-08-21T10:59:09;25.50;99.10
6879;DHT22;3478;51.462;7.338;2022-08-21T11:04:21;25.80;97.70
6879;DHT22;3478;51.462;7.338;2022-08-21T11:09:27;26.40;97.20
6879;DHT22;3478;51.462;7.338;2022-08-21T11:14:36;26.60;94.90
6879;DHT22;3478;51.462;7.338;2022-08-21T11:19:45;26.60;95.90
6879;DHT22;3478;51.462;7.338;2022-08-21T11:24:56;27.20;95.00
6879;DHT22;3478;51.462;7.338;2022-08-21T11:30:00;27.90;92.90
6879;DHT22;3478;51.462;7.338;2022-08-21T11:35:10;27.70;91.20
6879;DHT22;3478;51.462;7.338;2022-08-21T11:40:24;27.40;91.70
6879;DHT22;3478;51.462;7.338;2022-08-21T11:45:35;27.20;92.00
6879;DHT22;3478;51.462;7.338;2022-08-21T11:50:44;27.50;90.10
6879;DHT22;3478;51.462;7.338;2022-08-21T11:55:50;27.80;87.20
6879;DHT22;3478;51.462;7.338;2022-08-21T12:00:57;28.20;90.10
6879;DHT22;3478;51.462;7.338;2022-08-21T12:06:05;27.80;87.50
6879;DHT22;3478;51.462;7.338;2022-08-21T12:11:09;28.10;87.70
6879;DHT22;3478;51.462;7.338;2022-08-21T12:16:13;27.80;86.40
6879;DHT22;3478;51.462;7.338;2022-08-21T12:21:25;27.70;84.90
6879;DHT22;3478;51.462;7.338;2022-08-21T12:26:31;27.90;88.30
6879;DHT22;3478;51.462;7.338;2022-08-21T12:31:33;27.80;84.10
6879;DHT22;3478;51.462;7.338;2022-08-21T12:36:43;28.00;86.10
6879;DHT22;3478;51.462;7.338;2022-08-21T12:41:48;28.60;85.30
6879;DHT22;3478;51.462;7.338;2022-08-21T12:46:55;29.60;80.30
6879;DHT22;3478;51.462;7.338;2022-08-21T12:52:02;30.30;76.70
6879;DHT22;3478;51.462;7.338;2022-08-21T12:57:06;30.60;75.30
6879;DHT22;3478;51.462;7.338;2022-08-21T13:02:16;31.00;72.50
6879;DHT22;3478;51.462;7.338;2022-08-21T13:07:25;31.60;69.20
6879;DHT22;3478;51.462;7.338;2022-08-21T13:12:29;31.20;67.30
6879;DHT22;3478;51.462;7.338;2022-08-21T13:17:34;31.50;65.30
6879;DHT22;3478;51.462;7.338;2022-08-21T13:22:42;31.80;61.90
6879;DHT22;3478;51.462;7.338;2022-08-21T13:27:57;30.90;63.30
6879;DHT22;3478;51.462;7.338;2022-08-21T13:33:02;30.60;63.00
6879;DHT22;3478;51.462;7.338;2022-08-21T13:38:09;29.90;66.30
6879;DHT22;3478;51.462;7.338;2022-08-21T13:43:13;31.00;63.80
6879;DHT22;3478;51.462;7.338;2022-08-21T13:48:15;31.10;64.90
6879;DHT22;3478;51.462;7.338;2022-08-21T13:53:26;31.80;67.90
6879;DHT22;3478;51.462;7.338;2022-08-21T13:58:44;32.70;62.20
6879;DHT22;3478;51.462;7.338;2022-08-21T14:03:48;32.00;63.90
6879;DHT22;3478;51.462;7.338;2022-08-21T14:08:55;31.50;65.10
6879;DHT22;3478;51.462;7.338;2022-08-21T14:14:00;31.30;65.90
6879;DHT22;3478;51.462;7.338;2022-08-21T14:19:17;32.00;63.00
6879;DHT22;3478;51.462;7.338;2022-08-21T14:24:28;31.90;63.50
6879;DHT22;3478;51.462;7.338;2022-08-21T14:29:35;32.60;63.20
6879;DHT22;3478;51.462;7.338;2022-08-21T14:34:37;33.80;62.90
6879;DHT22;3478;51.462;7.338;2022-08-21T14:39:40;34.60;57.90
6879;DHT22;3478;51.462;7.338;2022-08-21T14:44:42;33.50;56.60
6879;DHT22;3478;51.462;7.338;2022-08-21T14:49:45;31.30;59.20
6879;DHT22;3478;51.462;7.338;2022-08-21T14:54:48;29.60;65.00
6879;DHT22;3478;51.462;7.338;2022-08-21T14:59:50;28.60;65.70
6879;DHT22;3478;51.462;7.338;2022-08-21T15:04:52;27.90;68.90
6879;DHT22;3478;51.462;7.338;2022-08-21T15:09:56;27.30;70.20
6879;DHT22;3478;51.462;7.338;2022-08-21T15:14:58;27.00;73.10
6879;DHT22;3478;51.462;7.338;2022-08-21T15:20:00;26.80;74.10
6879;DHT22;3478;51.462;7.338;2022-08-21T15:25:03;26.70;74.40
6879;DHT22;3478;51.462;7.338;2022-08-21T15:30:06;27.00;74.10
6879;DHT22;3478;51.462;7.338;2022-08-21T15:35:09;27.20;74.40
6879;DHT22;3478;51.462;7.338;2022-08-21T15:40:12;28.70;73.50
6879;DHT22;3478;51.462;7.338;2022-08-21T15:45:15;30.80;70.50
6879;DHT22;3478;51.462;7.338;2022-08-21T15:50:17;31.20;64.70
6879;DHT22;3478;51.462;7.338;2022-08-21T15:55:21;30.70;63.80
6879;DHT22;3478;51.462;7.338;2022-08-21T16:00:24;30.40;66.70
6879;DHT22;3478;51.462;7.338;2022-08-21T16:05:26;29.80;66.40
6879;DHT22;3478;51.462;7.338;2022-08-21T16:10:29;28.60;67.30
6879;DHT22;3478;51.462;7.338;2022-08-21T16:15:31;27.90;73.30
6879;DHT22;3478;51.462;7.338;2022-08-21T16:20:33;28.50;68.70
6879;DHT22;3478;51.462;7.338;2022-08-21T16:25:37;28.40;68.80
6879;DHT22;3478;51.462;7.338;2022-08-21T16:30:40;28.10;69.70
6879;DHT22;3478;51.462;7.338;2022-08-21T16:35:42;29.10;69.90
6879;DHT22;3478;51.462;7.338;2022-08-21T16:40:45;30.70;66.40
6879;DHT22;3478;51.462;7.338;2022-08-21T16:45:47;30.30;66.80
6879;DHT22;3478;51.462;7.338;2022-08-21T16:50:49;29.20;69.00
6879;DHT22;3478;51.462;7.338;2022-08-21T16:55:53;28.30;71.10
6879;DHT22;3478;51.462;7.338;2022-08-21T17:00:59;27.80;72.60
6879;DHT22;3478;51.462;7.338;2022-08-21T17:06:02;27.90;74.30
6879;DHT22;3478;51.462;7.338;2022-08-21T17:11:13;28.70;73.60
6879;DHT22;3478;51.462;7.338;2022-08-21T17:16:16;28.20;72.80
6879;DHT22;3478;51.462;7.338;2022-08-21T17:21:18;27.60;75.50
6879;DHT22;3478;51.462;7.338;2022-08-21T17:26:22;27.20;76.10
6879;DHT22;3478;51.462;7.338;2022-08-21T17:31:24;26.90;77.70
6879;DHT22;3478;51.462;7.338;2022-08-21T17:36:28;26.60;76.50
6879;DHT22;3478;51.462;7.338;2022-08-21T17:41:32;26.30;78.30
6879;DHT22;3478;51.462;7.338;2022-08-21T17:46:34;26.00;79.70
6879;DHT22;3478;51.462;7.338;2022-08-21T17:51:38;25.70;80.20
6879;DHT22;3478;51.462;7.338;2022-08-21T17:56:42;25.30;83.90
6879;DHT22;3478;51.462;7.338;2022-08-21T18:01:44;24.90;85.10
6879;DHT22;3478;51.462;7.338;2022-08-21T18:06:47;24.50;84.60
6879;DHT22;3478;51.462;7.338;2022-08-21T18:11:51;24.30;86.30
6879;DHT22;3478;51.462;7.338;2022-08-21T18:16:52;24.00;91.20
6879;DHT22;3478;51.462;7.338;2022-08-21T18:21:57;23.80;92.50
6879;DHT22;3478;51.462;7.338;2022-08-21T18:27:01;23.50;92.40
6879;DHT22;3478;51.462;7.338;2022-08-21T18:32:04;23.30;91.70
6879;DHT22;3478;51.462;7.338;2022-08-21T18:37:07;23.10;94.60
6879;DHT22;3478;51.462;7.338;2022-08-21T18:42:13;22.90;94.40
6879;DHT22;3478;51.462;7.338;2022-08-21T18:47:21;22.70;94.80
6879;DHT22;3478;51.462;7.338;2022-08-21T18:52:23;22.50;95.10
6879;DHT22;3478;51.462;7.338;2022-08-21T18:57:28;22.40;95.30
6879;DHT22;3478;51.462;7.338;2022-08-21T19:02:31;22.40;95.00
6879;DHT22;3478;51.462;7.338;2022-08-21T19:07:33;22.30;95.80
6879;DHT22;3478;51.462;7.338;2022-08-21T19:12:37;22.20;95.20
6879;DHT22;3478;51.462;7.338;2022-08-21T19:17:45;22.10;94.90
6879;DHT22;3478;51.462;7.338;2022-08-21T19:22:47;22.00;95.40
6879;DHT22;3478;51.462;7.338;2022-08-21T19:27:51;21.90;95.80
6879;DHT22;3478;51.462;7.338;2022-08-21T19:32:53;21.80;95.50
6879;DHT22;3478;51.462;7.338;2022-08-21T19:37:55;21.70;96.20
6879;DHT22;3478;51.462;7.338;2022-08-21T19:42:58;21.60;96.50
6879;DHT22;3478;51.462;7.338;2022-08-21T19:48:00;21.40;96.70
6879;DHT22;3478;51.462;7.338;2022-08-21T19:53:02;21.30;97.00
6879;DHT22;3478;51.462;7.338;2022-08-21T19:58:06;21.30;98.10
6879;DHT22;3478;51.462;7.338;2022-08-21T20:03:08;21.20;99.40
6879;DHT22;3478;51.462;7.338;2022-08-21T20:08:10;21.10;99.70
6879;DHT22;3478;51.462;7.338;2022-08-21T20:13:13;21.00;99.90
6879;DHT22;3478;51.462;7.338;2022-08-21T20:18:16;21.00;99.90
6879;DHT22;3478;51.462;7.338;2022-08-21T20:23:18;21.00;99.90
6879;DHT22;3478;51.462;7.338;2022-08-21T20:28:22;20.90;99.90
6879;DHT22;3478;51.462;7.338;2022-08-21T20:33:24;20.90;99.90
6879;DHT22;3478;51.462;7.338;2022-08-21T20:38:26;20.90;99.90
6879;DHT22;3478;51.462;7.338;2022-08-21T20:43:30;20.80;99.90
6879;DHT22;3478;51.462;7.338;2022-08-21T20:48:34;20.80;99.90
6879;DHT22;3478;51.462;7.338;2022-08-21T20:53:46;20.80;99.90
6879;DHT22;3478;51.462;7.338;2022-08-21T20:58:54;20.70;99.90
6879;DHT22;3478;51.462;7.338;2022-08-21T21:04:05;20.70;99.90
6879;DHT22;3478;51.462;7.338;2022-08-21T21:09:11;20.60;99.90
6879;DHT22;3478;51.462;7.338;2022-08-21T21:14:19;20.60;99.90
6879;DHT22;3478;51.462;7.338;2022-08-21T21:19:31;20.50;99.90
6879;DHT22;3478;51.462;7.338;2022-08-21T21:24:48;20.40;99.90
6879;DHT22;3478;51.462;7.338;2022-08-21T21:29:55;20.40;99.90
6879;DHT22;3478;51.462;7.338;2022-08-21T21:34:59;20.40;99.90
6879;DHT22;3478;51.462;7.338;2022-08-21T21:40:19;20.50;99.90
6879;DHT22;3478;51.462;7.338;2022-08-21T21:45:28;20.50;99.90
6879;DHT22;3478;51.462;7.338;2022-08-21T21:50:51;20.40;99.90
6879;DHT22;3478;51.462;7.338;2022-08-21T21:56:02;20.30;99.90
6879;DHT22;3478;51.462;7.338;2022-08-21T22:01:12;20.30;99.90
6879;DHT22;3478;51.462;7.338;2022-08-21T22:06:22;20.20;99.90
6879;DHT22;3478;51.462;7.338;2022-08-21T22:11:44;20.20;99.90
6879;DHT22;3478;51.462;7.338;2022-08-21T22:16:50;20.20;99.90
6879;DHT22;3478;51.462;7.338;2022-08-21T22:22:01;20.20;99.90
6879;DHT22;3478;51.462;7.338;2022-08-21T22:27:09;20.20;99.90
6879;DHT22;3478;51.462;7.338;2022-08-21T22:32:22;20.20;99.90
6879;DHT22;3478;51.462;7.338;2022-08-21T22:37:32;20.10;99.90
6879;DHT22;3478;51.462;7.338;2022-08-21T22:42:35;20.10;99.90
6879;DHT22;3478;51.462;7.338;2022-08-21T22:47:40;20.10;99.90
6879;DHT22;3478;51.462;7.338;2022-08-21T22:52:45;20.00;99.90
6879;DHT22;3478;51.462;7.338;2022-08-21T22:58:00;19.90;99.90
6879;DHT22;3478;51.462;7.338;2022-08-21T23:03:04;19.80;99.90
6879;DHT22;3478;51.462;7.338;2022-08-21T23:08:17;19.70;99.90
6879;DHT22;3478;51.462;7.338;2022-08-21T23:13:21;19.70;99.90
6879;DHT22;3478;51.462;7.338;2022-08-21T23:18:31;19.70;99.90
6879;DHT22;3478;51.462;7.338;2022-08-21T23:23:40;19.70;99.90
6879;DHT22;3478;51.462;7.338;2022-08-21T23:29:03;19.60;99.90
6879;DHT22;3478;51.462;7.338;2022-08-21T23:34:17;19.60;99.90
6879;DHT22;3478;51.462;7.338;2022-08-21T23:39:34;19.60;99.90
6879;DHT22;3478;51.462;7.338;2022-08-21T23:44:45;19.50;99.90
6879;DHT22;3478;51.462;7.338;2022-08-21T23:49:57;19.50;99.90
6879;DHT22;3478;51.462;7.338;2022-08-21T23:55:17;19.40;99.90
